Time;durP1;ratioP1;P1;durP2;ratioP2;P2;SDS_P1;SDS_P2;PMS_P1;PMS_P2;Temp;Humidity;BMP_temperature;BMP_pressure;BME280_temperature;BME280_humidity;BME280_pressure;Samples;Min_cycle;Max_cycle;Signal;HPM_P1;HPM_P2
2022/06/13 00:00:02;;;;;;;3.50;2.10;;;16.40;59.50;;;;;;5027549;28;20431;-71
2022/06/13 00:02:28;;;;;;;2.83;2.30;;;16.40;60.10;;;;;;5022786;28;22166;-71
2022/06/13 00:04:55;;;;;;;3.67;2.20;;;16.40;60.00;;;;;;5019216;28;20611;-71
2022/06/13 00:07:22;;;;;;;5.75;2.30;;;16.40;61.70;;;;;;5024007;28;20782;-71
2022/06/13 00:09:49;;;;;;;4.00;2.50;;;16.40;60.80;;;;;;5017758;28;20931;-71
2022/06/13 00:12:17;;;;;;;3.97;2.20;;;16.40;60.30;;;;;;5019124;28;20924;-70
2022/06/13 00:14:44;;;;;;;4.80;2.50;;;16.30;60.00;;;;;;5021965;28;20473;-72
2022/06/13 00:17:10;;;;;;;4.33;2.50;;;16.30;60.00;;;;;;5023089;28;20479;-72
2022/06/13 00:19:37;;;;;;;4.60;2.57;;;16.20;61.40;;;;;;5024282;28;20426;-72
2022/06/13 00:22:05;;;;;;;3.95;2.40;;;16.20;61.20;;;;;;5024226;28;20449;-70
2022/06/13 00:24:32;;;;;;;6.00;2.77;;;16.10;61.90;;;;;;5022845;28;20891;-70
2022/06/13 00:26:59;;;;;;;3.58;2.40;;;16.10;61.00;;;;;;5024535;28;20483;-72
2022/06/13 00:29:27;;;;;;;4.10;2.70;;;16.00;61.90;;;;;;5024481;28;20516;-69
2022/06/13 00:31:55;;;;;;;4.50;2.70;;;16.00;61.80;;;;;;5022451;28;20513;-72
2022/06/13 00:34:21;;;;;;;3.10;2.35;;;16.00;62.10;;;;;;5027287;28;20783;-72
2022/06/13 00:36:48;;;;;;;4.88;2.42;;;15.90;61.80;;;;;;5023655;28;20430;-69
2022/06/13 00:39:15;;;;;;;4.82;2.85;;;15.80;62.00;;;;;;5025916;28;20435;-70
2022/06/13 00:41:44;;;;;;;5.70;2.93;;;15.80;62.80;;;;;;5022087;28;20448;-70
2022/06/13 00:44:20;;;;;;;4.05;2.65;;;15.80;62.80;;;;;;5021809;28;20431;-72
2022/06/13 00:46:48;;;;;;;4.40;2.70;;;15.80;63.30;;;;;;5019802;28;20920;-72
2022/06/13 00:49:20;;;;;;;4.40;2.92;;;15.80;62.70;;;;;;5021634;28;20985;-71
2022/06/13 00:51:50;;;;;;;4.82;2.88;;;15.80;62.60;;;;;;5016576;28;20431;-72
2022/06/13 00:54:20;;;;;;;5.70;3.00;;;15.70;62.60;;;;;;5019121;28;20450;-71
2022/06/13 00:56:49;;;;;;;5.00;3.30;;;15.60;62.70;;;;;;5023234;28;20419;-72
2022/06/13 00:59:19;;;;;;;3.50;2.50;;;15.60;62.80;;;;;;5021162;28;20586;-72
2022/06/13 01:01:48;;;;;;;5.40;2.88;;;15.60;64.60;;;;;;5029419;28;20777;-72
2022/06/13 01:04:15;;;;;;;5.53;2.88;;;15.70;64.00;;;;;;5014889;28;20468;-72
2022/06/13 01:06:45;;;;;;;4.78;3.00;;;15.70;64.20;;;;;;5032957;28;20433;-71
2022/06/13 01:09:14;;;;;;;4.53;3.03;;;15.70;63.70;;;;;;5027233;28;20423;-71
2022/06/13 01:11:47;;;;;;;5.55;3.20;;;15.50;63.30;;;;;;5022262;28;20441;-72
2022/06/13 01:14:45;;;;;;;4.70;2.90;;;15.50;65.50;;;;;;5017903;28;20489;-72
2022/06/13 01:17:34;;;;;;;4.20;2.95;;;15.50;64.00;;;;;;5019513;28;21083;-73
2022/06/13 01:20:21;;;;;;;4.60;3.00;;;15.50;64.60;;;;;;5020413;28;20457;-72
2022/06/13 01:23:23;;;;;;;5.87;3.10;;;15.40;64.60;;;;;;5027617;28;20983;-69
2022/06/13 01:26:21;;;;;;;5.97;3.38;;;15.40;65.00;;;;;;5022652;28;20445;-69
2022/06/13 01:29:17;;;;;;;6.20;3.20;;;15.40;68.20;;;;;;5015348;28;20541;-71
2022/06/13 01:31:49;;;;;;;5.53;3.17;;;15.40;64.90;;;;;;5021181;28;20442;-72
2022/06/13 01:34:25;;;;;;;5.55;3.28;;;15.30;65.10;;;;;;5021472;28;20440;-71
2022/06/13 01:37:09;;;;;;;5.72;3.42;;;15.30;65.00;;;;;;5017127;28;21197;-71
2022/06/13 01:39:53;;;;;;;5.43;2.80;;;15.20;65.00;;;;;;5018182;28;20438;-72
2022/06/13 01:42:31;;;;;;;5.35;2.90;;;15.20;65.70;;;;;;5021765;28;20435;-71
2022/06/13 01:45:09;;;;;;;5.07;3.40;;;15.20;66.70;;;;;;5021891;28;20885;-72
2022/06/13 01:47:45;;;;;;;7.97;3.40;;;15.20;65.70;;;;;;5028381;28;20782;-72
2022/06/13 01:50:23;;;;;;;5.32;3.42;;;15.20;65.50;;;;;;5013794;28;20443;-72
2022/06/13 01:52:58;;;;;;;5.15;3.60;;;15.20;66.40;;;;;;5025710;28;20438;-71
2022/06/13 01:55:37;;;;;;;6.47;3.92;;;15.10;66.50;;;;;;5025588;28;20436;-70
2022/06/13 01:58:08;;;;;;;8.38;4.10;;;15.10;66.80;;;;;;5023413;28;20435;-72
2022/06/13 02:00:36;;;;;;;5.80;3.60;;;15.10;66.80;;;;;;5022245;28;20435;-71
2022/06/13 02:03:16;;;;;;;5.00;3.53;;;15.10;66.20;;;;;;5025680;28;20461;-71
2022/06/13 02:05:46;;;;;;;5.35;3.67;;;15.00;66.30;;;;;;5017692;28;20427;-72
2022/06/13 02:08:22;;;;;;;7.07;3.92;;;15.00;66.60;;;;;;5027961;28;20434;-71
2022/06/13 02:10:54;;;;;;;5.85;3.90;;;15.10;67.70;;;;;;5023817;28;20431;-71
2022/06/13 02:13:29;;;;;;;5.75;3.55;;;15.10;66.80;;;;;;5032531;28;20429;-72
2022/06/13 02:16:00;;;;;;;5.72;3.25;;;15.10;67.70;;;;;;5022007;28;20781;-72
2022/06/13 02:18:31;;;;;;;7.28;4.03;;;15.10;66.70;;;;;;5025904;28;20794;-70
2022/06/13 02:21:04;;;;;;;5.93;3.70;;;15.00;67.10;;;;;;5025378;28;20482;-70
2022/06/13 02:23:34;;;;;;;5.50;3.60;;;15.00;67.50;;;;;;5023129;28;20427;-70
2022/06/13 02:26:04;;;;;;;5.35;4.10;;;15.00;67.40;;;;;;5025334;28;20431;-71
2022/06/13 02:28:36;;;;;;;7.15;4.28;;;14.90;67.10;;;;;;5026155;28;20419;-70
2022/06/13 02:31:09;;;;;;;7.75;4.10;;;14.80;67.30;;;;;;5026566;28;20450;-70
2022/06/13 02:33:43;;;;;;;5.22;4.03;;;14.80;68.10;;;;;;5023192;28;20814;-70
2022/06/13 02:36:14;;;;;;;6.78;4.18;;;14.70;68.00;;;;;;5025674;28;20959;-69
2022/06/13 02:38:46;;;;;;;8.10;4.57;;;14.70;68.20;;;;;;5025965;28;20490;-72
2022/06/13 02:41:19;;;;;;;6.75;4.15;;;14.70;68.40;;;;;;5017731;28;21146;-70
2022/06/13 02:43:51;;;;;;;7.55;4.20;;;14.60;68.50;;;;;;5019274;28;20443;-71
2022/06/13 02:46:21;;;;;;;6.50;3.92;;;14.60;68.50;;;;;;5027436;28;20914;-72
2022/06/13 02:48:55;;;;;;;7.80;4.30;;;14.50;68.80;;;;;;5026254;28;20439;-70
2022/06/13 02:51:28;;;;;;;7.00;4.20;;;14.50;69.10;;;;;;5023310;28;20826;-70
2022/06/13 02:54:03;;;;;;;6.68;4.18;;;14.50;69.80;;;;;;5024061;28;20919;-70
2022/06/13 02:56:36;;;;;;;5.27;3.93;;;14.50;70.30;;;;;;5027670;28;20880;-71
2022/06/13 02:59:13;;;;;;;7.40;3.90;;;14.50;70.80;;;;;;5022416;28;20446;-72
2022/06/13 03:01:44;;;;;;;5.95;3.85;;;14.60;69.80;;;;;;5019870;28;20442;-70
2022/06/13 03:04:22;;;;;;;8.27;4.18;;;14.50;69.60;;;;;;5022442;28;20434;-71
2022/06/13 03:07:01;;;;;;;7.57;4.20;;;14.50;69.50;;;;;;5022482;28;20438;-72
2022/06/13 03:09:34;;;;;;;6.60;3.88;;;14.50;69.70;;;;;;5020333;28;20426;-72
2022/06/13 03:12:05;;;;;;;5.57;3.78;;;14.40;69.90;;;;;;5021471;28;20530;-72
2022/06/13 03:14:50;;;;;;;8.18;4.55;;;14.40;70.20;;;;;;5020561;28;20427;-70
2022/06/13 03:17:26;;;;;;;7.37;4.00;;;14.40;70.30;;;;;;5023980;28;20481;-70
2022/06/13 03:20:02;;;;;;;8.68;4.05;;;14.30;70.50;;;;;;5019742;28;20897;-71
2022/06/13 03:22:34;;;;;;;6.03;4.03;;;14.30;70.60;;;;;;5018773;28;20873;-72
2022/06/13 03:25:10;;;;;;;7.85;3.97;;;14.30;70.70;;;;;;5016831;28;20433;-72
2022/06/13 03:27:40;;;;;;;6.23;3.90;;;14.30;70.90;;;;;;5026125;28;20847;-72
2022/06/13 03:30:10;;;;;;;7.22;4.15;;;14.30;71.00;;;;;;5028789;28;20427;-72
2022/06/13 03:32:41;;;;;;;7.38;4.50;;;14.30;71.20;;;;;;5026403;28;20526;-72
2022/06/13 03:35:14;;;;;;;8.23;4.28;;;14.30;71.50;;;;;;5019556;28;20431;-72
2022/06/13 03:37:45;;;;;;;8.70;4.78;;;14.30;71.70;;;;;;5019019;28;20475;-72
2022/06/13 03:40:18;;;;;;;7.95;4.60;;;14.30;71.80;;;;;;5023623;28;20439;-72
2022/06/13 03:42:48;;;;;;;7.82;4.30;;;14.20;72.00;;;;;;5025043;28;20865;-72
2022/06/13 03:45:19;;;;;;;7.68;4.20;;;14.20;72.40;;;;;;5023576;28;20434;-72
2022/06/13 03:47:50;;;;;;;8.75;4.50;;;14.20;72.50;;;;;;5027368;28;20528;-72
2022/06/13 03:50:26;;;;;;;9.07;4.70;;;14.20;72.50;;;;;;5021828;28;20434;-71
2022/06/13 03:52:58;;;;;;;7.07;4.38;;;14.20;72.50;;;;;;5025997;28;20444;-72
2022/06/13 03:55:31;;;;;;;8.13;4.53;;;14.20;72.50;;;;;;5012812;28;20441;-71
2022/06/13 03:58:03;;;;;;;6.15;4.47;;;14.20;72.00;;;;;;5029501;28;20448;-71
2022/06/13 04:00:38;;;;;;;7.28;4.70;;;14.20;72.10;;;;;;5021357;28;20446;-71
2022/06/13 04:03:05;;;;;;;8.48;5.45;;;14.10;72.20;;;;;;5021706;28;20437;-71
2022/06/13 04:05:38;;;;;;;9.00;4.80;;;14.10;72.20;;;;;;5028948;28;20713;-73
2022/06/13 04:10:55;;;;;;;8.70;5.30;;;14.10;72.40;;;;;;5038095;28;20444;-70
2022/06/13 04:13:36;;;;;;;6.88;4.65;;;14.10;72.40;;;;;;5035817;28;20423;-68
2022/06/13 04:16:15;;;;;;;6.63;4.70;;;14.10;72.70;;;;;;5040306;28;20439;-69
2022/06/13 04:18:58;;;;;;;8.52;5.50;;;14.10;73.60;;;;;;5041760;28;20439;-68
2022/06/13 04:21:32;;;;;;;8.23;4.65;;;14.20;73.40;;;;;;5021331;28;20437;-68
2022/06/13 04:24:14;;;;;;;7.17;4.97;;;14.20;73.40;;;;;;5023719;28;20438;-68
2022/06/13 04:26:46;;;;;;;6.73;5.00;;;14.20;72.10;;;;;;5021103;28;20430;-68
2022/06/13 04:29:20;;;;;;;8.40;4.97;;;14.20;72.50;;;;;;5023682;28;20435;-71
2022/06/13 04:31:48;;;;;;;8.38;5.10;;;14.20;72.90;;;;;;5025638;28;20816;-70
2022/06/13 04:34:18;;;;;;;7.72;5.10;;;14.20;73.00;;;;;;5020092;28;20443;-69
2022/06/13 04:36:49;;;;;;;7.80;5.00;;;14.20;72.10;;;;;;5026243;28;20442;-69
2022/06/13 04:39:20;;;;;;;8.90;4.80;;;14.10;72.20;;;;;;5021180;28;20430;-70
2022/06/13 04:41:50;;;;;;;7.65;4.93;;;14.10;72.40;;;;;;5024963;28;20435;-69
2022/06/13 04:44:20;;;;;;;9.00;5.65;;;14.10;72.70;;;;;;5021552;28;20454;-68
2022/06/13 04:46:48;;;;;;;9.50;4.90;;;14.20;73.20;;;;;;5015281;28;20458;-69
2022/06/13 04:49:24;;;;;;;9.50;5.00;;;14.20;74.40;;;;;;5023188;28;20441;-69
2022/06/13 04:51:54;;;;;;;9.30;5.40;;;14.40;73.70;;;;;;5019868;28;20495;-69
2022/06/13 04:54:29;;;;;;;6.25;4.20;;;14.40;73.00;;;;;;5021021;28;20441;-69
2022/06/13 04:56:58;;;;;;;6.13;4.70;;;14.60;74.00;;;;;;5017822;28;20419;-69
2022/06/13 04:59:26;;;;;;;6.90;4.60;;;14.60;70.90;;;;;;5014763;28;20831;-68
2022/06/13 05:01:53;;;;;;;8.95;4.50;;;14.60;71.00;;;;;;5022255;28;20537;-68
2022/06/13 05:04:24;;;;;;;7.53;4.40;;;14.60;71.60;;;;;;5021118;28;21006;-71
2022/06/13 05:06:55;;;;;;;7.03;4.57;;;14.70;71.90;;;;;;5022762;28;20423;-70
2022/06/13 05:09:24;;;;;;;7.10;4.43;;;14.80;71.70;;;;;;5017455;28;20438;-71
2022/06/13 05:11:56;;;;;;;5.28;4.45;;;14.90;71.80;;;;;;5021770;28;20524;-70
2022/06/13 05:14:28;;;;;;;6.70;4.20;;;14.90;70.70;;;;;;5017416;28;20431;-71
2022/06/13 05:17:06;;;;;;;8.43;4.50;;;14.90;71.30;;;;;;5022133;28;20809;-69
2022/06/13 05:19:44;;;;;;;8.48;4.22;;;14.90;71.00;;;;;;5017917;28;20434;-70
2022/06/13 05:22:27;;;;;;;7.45;4.47;;;14.90;71.50;;;;;;5021445;28;20431;-69
2022/06/13 05:25:17;;;;;;;4.97;4.18;;;14.90;70.40;;;;;;5016092;28;20428;-68
2022/06/13 05:27:44;;;;;;;7.40;4.75;;;14.90;70.30;;;;;;5020812;28;20440;-72
2022/06/13 05:30:14;;;;;;;7.35;4.43;;;14.70;70.60;;;;;;5024244;28;20498;-70
2022/06/13 05:32:41;;;;;;;6.75;4.60;;;14.70;70.80;;;;;;5017761;28;20910;-70
2022/06/13 05:35:13;;;;;;;7.53;4.70;;;14.70;70.80;;;;;;5024880;28;20449;-72
2022/06/13 05:37:42;;;;;;;9.30;4.85;;;14.60;70.30;;;;;;5023917;28;20446;-69
2022/06/13 05:40:14;;;;;;;6.88;4.30;;;14.70;70.70;;;;;;5024596;28;20444;-70
2022/06/13 05:42:41;;;;;;;7.18;4.03;;;14.70;70.20;;;;;;5023787;28;20920;-70
2022/06/13 05:45:12;;;;;;;8.55;4.10;;;14.70;69.80;;;;;;5022738;28;21122;-74
2022/06/13 05:47:40;;;;;;;6.45;4.50;;;14.80;69.60;;;;;;5022577;28;20429;-71
2022/06/13 05:50:07;;;;;;;6.90;4.75;;;14.90;71.10;;;;;;5021020;28;20432;-71
2022/06/13 05:52:34;;;;;;;8.15;4.40;;;14.90;69.40;;;;;;5022751;28;20437;-71
2022/06/13 05:55:02;;;;;;;7.15;4.35;;;14.90;68.90;;;;;;5033637;28;20437;-73
2022/06/13 05:57:29;;;;;;;7.33;4.80;;;15.00;70.90;;;;;;5049893;28;20477;-70
2022/06/13 05:59:57;;;;;;;7.70;4.32;;;15.00;70.60;;;;;;5045801;28;20430;-71
2022/06/13 06:02:24;;;;;;;7.88;4.45;;;15.00;70.80;;;;;;5029575;28;20458;-71
2022/06/13 06:04:50;;;;;;;8.20;4.10;;;15.10;70.20;;;;;;5026380;28;20437;-71
2022/06/13 06:07:17;;;;;;;8.50;4.50;;;15.10;69.80;;;;;;5022197;28;20436;-71
2022/06/13 06:09:45;;;;;;;6.90;4.72;;;15.20;70.20;;;;;;5020615;28;20446;-71
2022/06/13 06:12:13;;;;;;;7.90;4.90;;;15.20;70.90;;;;;;5019410;28;20436;-70
2022/06/13 06:14:40;;;;;;;7.20;4.43;;;15.30;70.50;;;;;;5018711;28;20425;-70
2022/06/13 06:17:07;;;;;;;8.33;4.37;;;15.40;71.00;;;;;;5019908;28;20436;-70
2022/06/13 06:19:34;;;;;;;5.87;4.37;;;15.50;68.80;;;;;;5024367;28;21291;-70
2022/06/13 06:22:00;;;;;;;9.48;4.88;;;15.60;69.60;;;;;;5028930;28;20425;-70
2022/06/13 06:24:27;;;;;;;9.75;4.50;;;15.60;69.50;;;;;;5030381;28;20513;-70
2022/06/13 06:26:55;;;;;;;7.50;4.38;;;15.70;69.70;;;;;;5029066;28;20441;-70
2022/06/13 06:29:24;;;;;;;9.00;4.97;;;15.90;70.00;;;;;;5014265;28;20435;-69
2022/06/13 06:31:51;;;;;;;8.90;6.43;;;16.00;70.10;;;;;;5021732;28;20445;-70
2022/06/13 06:34:19;;;;;;;5.93;4.30;;;16.20;67.90;;;;;;5025974;28;20477;-69
2022/06/13 06:36:46;;;;;;;6.78;4.75;;;16.30;66.20;;;;;;5027529;28;20437;-70
2022/06/13 06:39:12;;;;;;;8.75;7.20;;;16.30;66.80;;;;;;5026976;28;20985;-71
2022/06/13 06:41:39;;;;;;;7.30;4.80;;;16.40;67.80;;;;;;5028791;28;20506;-69
2022/06/13 06:44:06;;;;;;;6.30;4.10;;;16.40;65.30;;;;;;5027439;28;20437;-69
2022/06/13 06:46:34;;;;;;;6.47;4.60;;;16.20;65.70;;;;;;5021549;28;20437;-69
2022/06/13 06:49:02;;;;;;;6.03;4.70;;;16.00;68.20;;;;;;5024640;28;20434;-69
2022/06/13 06:51:29;;;;;;;8.27;5.00;;;15.90;68.50;;;;;;5022975;28;20429;-69
2022/06/13 07:02:11;;;;;;;8.23;4.50;;;15.70;69.20;;;;;;5023448;28;20490;-70
2022/06/13 07:04:38;;;;;;;6.60;4.25;;;16.00;69.10;;;;;;5028573;28;20430;-73
2022/06/13 07:07:05;;;;;;;8.80;5.13;;;16.30;66.10;;;;;;5021239;28;21020;-70
2022/06/13 07:09:32;;;;;;;7.53;4.82;;;16.40;65.20;;;;;;5023881;28;20437;-70
2022/06/13 07:11:59;;;;;;;7.90;4.78;;;16.40;65.70;;;;;;5024579;28;20435;-69
2022/06/13 07:14:28;;;;;;;8.30;4.80;;;16.50;66.10;;;;;;5023953;28;20438;-69
2022/06/13 07:16:56;;;;;;;7.82;4.57;;;16.50;65.20;;;;;;5018949;28;20940;-70
2022/06/13 07:19:25;;;;;;;8.60;5.10;;;16.60;66.80;;;;;;5027650;28;20916;-69
2022/06/13 07:21:52;;;;;;;8.43;4.90;;;16.50;64.50;;;;;;5018971;28;20778;-69
2022/06/13 07:24:20;;;;;;;6.85;5.00;;;16.50;64.90;;;;;;5019837;28;20531;-69
2022/06/13 07:26:48;;;;;;;7.32;4.88;;;16.70;65.30;;;;;;5038374;28;20399;-69
2022/06/13 07:29:16;;;;;;;5.10;4.23;;;17.00;66.20;;;;;;5046306;28;20536;-69
2022/06/13 07:31:45;;;;;;;7.63;4.50;;;17.30;63.70;;;;;;5048269;28;20458;-68
2022/06/13 07:34:15;;;;;;;7.82;4.80;;;17.60;60.90;;;;;;5037040;28;20413;-68
2022/06/13 07:36:44;;;;;;;7.95;4.90;;;17.60;60.60;;;;;;5049956;28;20441;-69
2022/06/13 07:39:11;;;;;;;7.40;4.43;;;17.70;60.70;;;;;;5043695;28;20421;-69
2022/06/13 07:41:39;;;;;;;7.78;5.03;;;17.80;61.70;;;;;;5034750;28;20537;-69
2022/06/13 07:44:07;;;;;;;8.48;4.70;;;17.90;59.70;;;;;;5042899;28;20479;-69
2022/06/13 07:46:34;;;;;;;8.20;5.32;;;17.70;60.10;;;;;;5040589;28;20410;-69
2022/06/13 07:49:02;;;;;;;7.85;4.68;;;17.70;60.40;;;;;;5044799;28;20415;-69
2022/06/13 07:51:29;;;;;;;9.00;4.78;;;17.60;60.70;;;;;;5051952;28;20429;-74
2022/06/13 07:53:57;;;;;;;8.60;4.97;;;17.60;61.30;;;;;;5046395;28;20511;-69
2022/06/13 07:56:27;;;;;;;10.38;6.70;;;17.60;61.00;;;;;;5032832;28;20515;-69
2022/06/13 07:58:55;;;;;;;9.80;6.85;;;17.60;61.70;;;;;;5027865;28;20430;-69
2022/06/13 08:01:23;;;;;;;9.10;6.32;;;17.50;63.00;;;;;;5024464;28;20964;-69
2022/06/13 08:03:51;;;;;;;9.00;6.30;;;17.50;63.50;;;;;;5022501;28;20440;-70
2022/06/13 08:06:18;;;;;;;14.45;8.85;;;17.60;63.60;;;;;;5019680;28;20434;-69
2022/06/13 08:08:46;;;;;;;11.75;8.00;;;18.00;63.80;;;;;;5027939;28;20418;-69
2022/06/13 08:11:17;;;;;;;11.18;8.88;;;18.40;63.90;;;;;;5035483;28;20440;-70
2022/06/13 08:13:44;;;;;;;11.40;7.13;;;18.70;62.50;;;;;;5034492;28;21004;-69
2022/06/13 08:16:11;;;;;;;9.82;8.82;;;19.00;61.70;;;;;;5031845;28;20430;-69
2022/06/13 08:18:38;;;;;;;12.13;10.20;;;19.40;59.50;;;;;;5021423;28;20419;-69
2022/06/13 08:21:06;;;;;;;11.60;8.75;;;19.50;58.90;;;;;;5027078;28;20441;-69
2022/06/13 08:23:33;;;;;;;13.70;10.05;;;19.70;58.10;;;;;;5021441;28;20471;-69
2022/06/13 08:26:00;;;;;;;11.30;8.68;;;19.70;58.20;;;;;;5024641;28;20439;-70
2022/06/13 08:28:28;;;;;;;9.48;8.20;;;19.90;59.00;;;;;;5022496;28;20411;-69
2022/06/13 08:30:59;;;;;;;9.47;7.50;;;20.40;57.90;;;;;;5021058;28;20514;-69
2022/06/13 08:33:26;;;;;;;10.55;8.15;;;20.80;56.30;;;;;;5019973;28;20534;-73
2022/06/13 08:35:53;;;;;;;10.90;9.73;;;21.00;55.80;;;;;;5028672;28;20432;-69
2022/06/13 08:38:23;;;;;;;12.80;10.35;;;20.60;55.30;;;;;;5042638;28;20450;-70
2022/06/13 08:40:57;;;;;;;11.17;9.13;;;20.40;56.40;;;;;;5044908;28;20419;-69
2022/06/13 08:44:05;;;;;;;13.75;9.10;;;20.60;55.00;;;;;;5044893;28;20421;-71
2022/06/13 08:46:39;;;;;;;11.13;8.70;;;20.60;55.00;;;;;;5043287;28;20418;-71
2022/06/13 08:49:14;;;;;;;11.70;8.43;;;20.80;54.40;;;;;;5043414;28;20470;-70
2022/06/13 08:51:46;;;;;;;13.05;9.15;;;20.60;54.30;;;;;;5046078;28;20486;-70
2022/06/13 08:54:20;;;;;;;11.32;7.95;;;20.20;55.40;;;;;;5034704;28;20437;-70
2022/06/13 08:56:47;;;;;;;10.88;8.38;;;20.00;57.10;;;;;;5027656;28;20435;-71
2022/06/13 08:59:23;;;;;;;10.87;8.27;;;20.20;56.50;;;;;;5029532;28;20905;-71
2022/06/13 09:01:53;;;;;;;10.13;7.70;;;20.40;54.60;;;;;;5020345;28;20440;-70
2022/06/13 09:04:25;;;;;;;10.13;7.30;;;20.40;54.20;;;;;;5018375;28;20426;-69
2022/06/13 09:06:54;;;;;;;10.15;6.40;;;20.70;52.90;;;;;;5025888;28;20427;-71
2022/06/13 09:09:27;;;;;;;13.13;7.82;;;20.90;51.50;;;;;;5019953;28;20428;-72
2022/06/13 09:11:58;;;;;;;9.63;6.85;;;20.90;53.30;;;;;;5022428;28;20805;-71
2022/06/13 09:14:31;;;;;;;9.35;7.10;;;20.90;53.70;;;;;;5018288;28;20434;-70
2022/06/13 09:17:13;;;;;;;10.65;5.93;;;20.60;52.80;;;;;;5021367;28;20434;-71
2022/06/13 09:19:49;;;;;;;10.97;7.17;;;20.40;52.50;;;;;;5022735;28;20507;-70
2022/06/13 09:22:26;;;;;;;9.57;6.88;;;20.20;54.70;;;;;;5028605;28;20422;-70
2022/06/13 09:25:02;;;;;;;9.77;6.45;;;20.10;55.70;;;;;;5017334;28;20422;-70
2022/06/13 09:27:34;;;;;;;9.70;6.53;;;20.00;55.10;;;;;;5019852;28;20429;-72
2022/06/13 09:30:07;;;;;;;10.00;5.97;;;19.90;54.70;;;;;;5011172;28;20423;-70
2022/06/13 09:32:39;;;;;;;9.80;5.75;;;19.90;54.10;;;;;;5022869;28;20834;-71
2022/06/13 09:35:14;;;;;;;7.50;5.23;;;19.90;52.80;;;;;;5027020;28;20556;-71
2022/06/13 09:37:48;;;;;;;8.98;4.10;;;20.10;53.20;;;;;;5016853;28;20575;-70
2022/06/13 09:40:18;;;;;;;8.45;4.78;;;20.40;48.40;;;;;;5022500;28;20423;-70
2022/06/13 09:43:04;;;;;;;9.75;5.70;;;20.40;48.20;;;;;;5022833;28;20832;-70
2022/06/13 09:45:53;;;;;;;8.05;5.20;;;20.10;50.00;;;;;;5025944;28;20418;-70
2022/06/13 09:48:32;;;;;;;10.70;4.65;;;20.20;51.30;;;;;;5026869;28;20425;-69
2022/06/13 09:51:10;;;;;;;7.88;4.90;;;20.10;51.00;;;;;;5028597;28;20426;-69
2022/06/13 09:53:47;;;;;;;9.38;5.20;;;19.90;51.30;;;;;;5027273;28;20427;-70
2022/06/13 09:56:22;;;;;;;9.15;5.15;;;19.90;51.90;;;;;;5018919;28;20437;-70
2022/06/13 09:59:01;;;;;;;9.30;5.00;;;19.70;50.90;;;;;;5021171;28;20423;-70
2022/06/13 10:01:39;;;;;;;8.93;4.70;;;19.30;52.40;;;;;;5022286;28;20623;-70
2022/06/13 10:04:11;;;;;;;9.32;4.70;;;18.90;53.70;;;;;;5008505;28;20417;-70
2022/06/13 10:06:41;;;;;;;9.30;5.05;;;18.90;55.00;;;;;;5016475;28;20437;-68
2022/06/13 10:09:18;;;;;;;9.30;4.90;;;18.90;55.60;;;;;;5043446;22;20690;-71
2022/06/13 10:11:51;;;;;;;7.63;4.45;;;18.90;54.00;;;;;;5018231;28;20441;-70
2022/06/13 10:14:36;;;;;;;9.00;4.82;;;18.90;54.10;;;;;;5021648;28;20526;-70
2022/06/13 10:17:16;;;;;;;8.13;4.38;;;18.90;54.20;;;;;;5037055;28;20907;-71
2022/06/13 10:19:52;;;;;;;7.87;4.77;;;18.90;54.60;;;;;;5026400;28;20440;-71
2022/06/13 10:22:29;;;;;;;6.72;4.25;;;19.00;54.40;;;;;;5007071;28;20608;-71
2022/06/13 10:25:06;;;;;;;6.72;3.85;;;19.30;52.40;;;;;;5017615;28;20517;-71
2022/06/13 10:27:47;;;;;;;7.20;3.60;;;19.60;50.80;;;;;;5017154;28;20441;-71
2022/06/13 10:30:28;;;;;;;6.68;3.90;;;19.80;50.10;;;;;;5005296;28;20420;-71
2022/06/13 10:33:16;;;;;;;8.98;3.75;;;20.00;48.30;;;;;;5011462;28;20462;-72
2022/06/13 10:35:49;;;;;;;6.68;3.40;;;20.50;47.50;;;;;;5010375;28;20486;-72
2022/06/13 10:38:30;;;;;;;7.13;4.10;;;21.20;46.20;;;;;;5005314;28;20442;-70
2022/06/13 10:40:58;;;;;;;7.10;3.35;;;21.60;43.60;;;;;;5017923;28;20539;-72
2022/06/13 10:43:26;;;;;;;6.93;3.95;;;21.50;43.60;;;;;;5022549;28;20749;-72
2022/06/13 10:45:52;;;;;;;9.50;3.93;;;21.50;45.50;;;;;;5004420;28;20432;-72
2022/06/13 10:48:25;;;;;;;5.93;3.77;;;21.80;43.60;;;;;;5002400;28;20515;-71
2022/06/13 10:50:56;;;;;;;8.07;3.20;;;21.90;43.50;;;;;;4998829;28;20769;-72
2022/06/13 10:53:27;;;;;;;7.43;3.80;;;22.10;41.80;;;;;;5000043;28;20432;-71
2022/06/13 10:55:57;;;;;;;6.35;3.33;;;22.30;43.10;;;;;;5004859;28;20442;-73
2022/06/13 10:58:29;;;;;;;6.15;3.38;;;22.40;43.60;;;;;;4988526;28;20434;-72
2022/06/13 11:01:11;;;;;;;5.85;3.00;;;22.70;41.90;;;;;;5002111;28;20440;-72
2022/06/13 11:03:42;;;;;;;5.30;3.15;;;22.90;41.40;;;;;;5014674;28;20527;-73
2022/06/13 11:06:19;;;;;;;5.03;2.90;;;22.80;40.70;;;;;;4996080;28;20436;-76
2022/06/13 11:08:46;;;;;;;6.95;3.13;;;22.90;41.90;;;;;;5004535;28;20457;-76
2022/06/13 11:11:16;;;;;;;6.63;2.60;;;22.50;38.10;;;;;;5011318;28;20440;-75
2022/06/13 11:13:51;;;;;;;5.03;2.90;;;22.00;40.90;;;;;;5000896;28;20437;-67
2022/06/13 11:24:48;;;;;;;4.18;2.30;;;22.90;38.40;;;;;;5006244;28;20427;-67
2022/06/13 11:27:42;;;;;;;5.53;2.80;;;23.40;37.40;;;;;;5002648;28;20909;-67
2022/06/13 11:30:34;;;;;;;5.70;2.58;;;23.60;36.90;;;;;;4993507;28;20448;-68
2022/06/13 11:33:03;;;;;;;4.30;2.60;;;23.50;35.60;;;;;;5000540;28;20438;-69
2022/06/13 11:35:37;;;;;;;6.88;2.60;;;23.40;38.10;;;;;;4998053;28;20452;-68
2022/06/13 11:38:20;;;;;;;5.73;2.43;;;23.40;34.80;;;;;;4998778;28;20874;-71
2022/06/13 11:40:57;;;;;;;6.47;3.20;;;23.10;35.20;;;;;;4994169;28;20449;-68
2022/06/13 11:43:34;;;;;;;6.57;2.70;;;23.00;36.50;;;;;;5003322;28;20487;-67
2022/06/13 11:46:04;;;;;;;5.38;2.88;;;23.00;36.30;;;;;;5001714;28;20495;-68
2022/06/13 11:48:31;;;;;;;6.18;2.95;;;23.30;36.90;;;;;;5009387;28;20509;-68
2022/06/13 11:51:02;;;;;;;3.92;2.80;;;23.00;37.30;;;;;;5005181;28;20435;-64
2022/06/13 11:53:36;;;;;;;5.50;2.70;;;23.00;38.60;;;;;;4996244;28;20444;-66
2022/06/13 11:56:07;;;;;;;5.43;3.00;;;23.00;38.90;;;;;;4995283;28;20433;-67
2022/06/13 11:58:37;;;;;;;3.65;2.50;;;22.80;37.30;;;;;;5002246;28;20737;-67
2022/06/13 12:01:21;;;;;;;6.30;2.60;;;22.90;37.10;;;;;;4997079;28;20518;-65
2022/06/13 12:03:58;;;;;;;5.07;2.50;;;23.00;38.20;;;;;;4996854;28;20439;-66
2022/06/13 12:06:27;;;;;;;3.60;2.10;;;23.10;37.10;;;;;;5002858;28;20440;-66
2022/06/13 12:09:03;;;;;;;5.80;2.40;;;22.90;36.90;;;;;;4996990;28;20443;-65
2022/06/13 12:11:30;;;;;;;4.20;1.90;;;22.80;36.80;;;;;;4993543;28;20487;-67
2022/06/13 12:14:01;;;;;;;3.88;2.10;;;22.90;36.70;;;;;;5007575;28;20427;-66
2022/06/13 12:16:36;;;;;;;4.10;2.30;;;23.00;35.70;;;;;;4997178;28;20464;-67
2022/06/13 12:19:14;;;;;;;6.95;2.70;;;23.10;36.50;;;;;;4997901;28;20449;-67
2022/06/13 12:21:49;;;;;;;5.55;2.33;;;22.70;36.70;;;;;;4997058;28;20434;-65
2022/06/13 12:24:22;;;;;;;3.92;2.17;;;22.30;37.40;;;;;;4998264;28;20510;-65
2022/06/13 12:26:57;;;;;;;4.38;2.05;;;22.30;35.60;;;;;;4998199;28;20436;-66
2022/06/13 12:30:01;;;;;;;3.42;1.70;;;22.50;33.90;;;;;;5000150;28;20431;-66
2022/06/13 12:32:32;;;;;;;3.60;2.08;;;22.50;35.00;;;;;;4952387;28;20432;-66
2022/06/13 12:35:13;;;;;;;2.97;1.90;;;23.00;35.70;;;;;;4996262;28;20440;-66
2022/06/13 12:37:55;;;;;;;3.90;2.00;;;23.40;35.30;;;;;;4996195;28;20499;-66
2022/06/13 12:40:36;;;;;;;4.47;2.30;;;23.60;33.20;;;;;;4993483;28;20528;-66
2022/06/13 12:43:18;;;;;;;4.47;2.30;;;23.90;34.10;;;;;;4997167;28;20440;-65
2022/06/13 12:46:09;;;;;;;2.63;1.88;;;23.80;34.60;;;;;;4990645;28;20784;-66
2022/06/13 12:48:52;;;;;;;4.38;2.30;;;23.90;34.70;;;;;;4999853;28;20439;-66
2022/06/13 12:51:27;;;;;;;4.88;1.88;;;23.60;35.00;;;;;;5003507;28;20462;-64
2022/06/13 12:54:37;;;;;;;4.93;2.30;;;23.10;36.20;;;;;;4998166;28;21026;-64
2022/06/13 12:57:19;;;;;;;3.20;1.88;;;22.90;37.60;;;;;;4995821;28;20459;-66
2022/06/13 13:00:01;;;;;;;4.30;1.90;;;22.70;37.30;;;;;;4992598;28;20464;-64
2022/06/13 13:02:35;;;;;;;3.97;1.95;;;22.90;37.80;;;;;;5003976;28;20531;-65
2022/06/13 13:05:17;;;;;;;2.97;1.80;;;23.40;37.10;;;;;;5005564;28;20490;-65
2022/06/13 13:07:52;;;;;;;5.30;2.17;;;23.50;36.30;;;;;;5003558;28;20539;-66
2022/06/13 13:10:30;;;;;;;3.75;1.63;;;23.30;35.50;;;;;;4997100;28;20447;-66
2022/06/13 13:13:16;;;;;;;4.90;2.57;;;23.10;38.30;;;;;;5010850;28;20421;-67
2022/06/13 13:15:49;;;;;;;4.85;2.40;;;23.30;36.90;;;;;;4996418;28;20447;-67
2022/06/13 13:18:27;;;;;;;3.70;2.05;;;23.10;35.90;;;;;;5007302;28;20493;-67
2022/06/13 13:20:59;;;;;;;6.00;2.30;;;23.10;36.20;;;;;;4991732;28;20464;-68
2022/06/13 13:23:34;;;;;;;5.65;2.10;;;23.20;37.10;;;;;;4993800;28;20436;-68
2022/06/13 13:26:14;;;;;;;5.20;2.08;;;23.50;38.20;;;;;;4998311;28;20439;-67
2022/06/13 13:28:51;;;;;;;3.63;1.60;;;23.90;36.40;;;;;;5002070;28;20761;-67
2022/06/13 13:31:24;;;;;;;2.70;1.95;;;24.10;32.50;;;;;;4995767;28;20929;-66
2022/06/13 13:34:04;;;;;;;3.20;1.67;;;23.70;32.30;;;;;;4996612;28;20442;-66